createdAt,value
2023-03-22T00:01:25.349Z,18.67
2023-03-22T00:03:52.911Z,15.85
2023-03-22T00:06:26.740Z,24.63
2023-03-22T00:08:54.156Z,20.90
2023-03-22T00:11:24.293Z,23.80
2023-03-22T00:13:52.645Z,17.95
2023-03-22T00:16:20.391Z,22.83
2023-03-22T00:18:59.547Z,20.13
2023-03-22T00:21:27.856Z,29.42
2023-03-22T00:23:55.309Z,19.67
2023-03-22T00:26:22.674Z,22.75
2023-03-22T00:28:50.195Z,21.38
2023-03-22T00:31:22.988Z,18.17
2023-03-22T00:33:51.437Z,25.08
2023-03-22T00:36:18.676Z,26.67
2023-03-22T00:38:47.434Z,35.85
2023-03-22T00:41:16.566Z,34.08
2023-03-22T00:43:46.298Z,48.17
2023-03-22T00:46:13.987Z,39.67
2023-03-22T00:48:41.285Z,44.90
2023-03-22T00:51:10.864Z,43.25
2023-03-22T00:53:41.893Z,50.63
2023-03-22T00:56:10.758Z,43.72
2023-03-22T00:58:39.442Z,48.17
2023-03-22T01:01:07.464Z,31.17
2023-03-22T01:03:35.635Z,39.65
2023-03-22T01:06:02.933Z,47.17
2023-03-22T01:08:38.948Z,34.67
2023-03-22T01:11:08.577Z,36.20
2023-03-22T01:13:41.927Z,19.45
2023-03-22T01:16:09.687Z,23.00
2023-03-22T01:18:37.333Z,39.20
2023-03-22T01:21:04.851Z,29.83
2023-03-22T01:23:32.196Z,25.60
2023-03-22T01:25:59.476Z,24.67
2023-03-22T01:28:27.353Z,29.05
2023-03-22T01:30:55.379Z,27.15
2023-03-22T01:33:22.995Z,28.95
2023-03-22T01:35:51.911Z,26.20
2023-03-22T01:38:19.930Z,31.10
2023-03-22T01:40:47.962Z,28.05
2023-03-22T01:43:15.682Z,24.30
2023-03-22T01:45:43.849Z,28.77
2023-03-22T01:48:15.502Z,25.88
2023-03-22T01:50:45.491Z,25.73
2023-03-22T01:53:13.734Z,24.63
2023-03-22T01:55:41.254Z,25.95
2023-03-22T01:58:08.565Z,22.98
2023-03-22T02:00:35.917Z,23.52
2023-03-22T02:03:04.971Z,30.23
2023-03-22T02:05:32.475Z,26.60
2023-03-22T02:08:01.065Z,23.25
2023-03-22T02:10:28.370Z,31.27
2023-03-22T02:13:18.713Z,29.27
2023-03-22T02:16:34.999Z,29.52
2023-03-22T02:19:10.961Z,37.63
2023-03-22T02:21:57.149Z,27.05
2023-03-22T02:24:46.296Z,32.97
2023-03-22T02:27:35.330Z,32.25
2023-03-22T02:30:22.904Z,30.13
2023-03-22T02:33:12.300Z,28.33
2023-03-22T02:35:46.178Z,39.30
2023-03-22T02:38:45.827Z,33.67
2023-03-22T02:41:26.328Z,39.63
2023-03-22T02:44:17.290Z,44.97
2023-03-22T02:46:49.835Z,38.83
2023-03-22T02:49:17.091Z,28.80
2023-03-22T02:51:47.985Z,33.05
2023-03-22T02:54:24.127Z,30.95
2023-03-22T02:57:00.015Z,33.60
2023-03-22T02:59:27.380Z,31.02
2023-03-22T03:01:59.249Z,34.67
2023-03-22T03:04:29.080Z,35.40
2023-03-22T03:07:05.803Z,34.13
2023-03-22T03:09:33.192Z,35.28
2023-03-22T03:12:00.485Z,37.10
2023-03-22T03:14:31.795Z,35.47
2023-03-22T03:17:14.498Z,33.45
2023-03-22T03:19:51.946Z,34.22
2023-03-22T03:22:28.954Z,34.25
2023-03-22T03:25:28.594Z,40.13
2023-03-22T03:28:12.554Z,31.52
2023-03-22T03:30:53.879Z,32.65
2023-03-22T03:33:22.482Z,37.28
2023-03-22T03:36:01.307Z,38.85
2023-03-22T03:38:30.335Z,38.67
2023-03-22T03:41:01.008Z,36.67
2023-03-22T03:43:28.254Z,37.10
2023-03-22T03:45:55.786Z,42.92
2023-03-22T03:48:26.204Z,38.72
2023-03-22T03:50:53.486Z,38.90
2023-03-22T03:53:21.030Z,32.50
2023-03-22T03:55:48.346Z,38.13
2023-03-22T03:58:18.913Z,32.28
2023-03-22T04:00:46.509Z,40.15
2023-03-22T04:03:14.343Z,36.92
2023-03-22T04:05:41.791Z,33.38
2023-03-22T04:08:09.185Z,44.72
2023-03-22T04:10:36.680Z,38.40
2023-03-22T04:13:05.864Z,36.65
2023-03-22T04:15:33.595Z,36.15
2023-03-22T04:18:00.905Z,39.40
2023-03-22T04:20:29.924Z,40.03
2023-03-22T04:22:58.169Z,34.85
2023-03-22T04:25:30.355Z,33.53
2023-03-22T04:28:00.603Z,36.20
2023-03-22T04:30:28.703Z,36.65
2023-03-22T04:32:56.555Z,40.20
2023-03-22T04:35:23.829Z,38.55
2023-03-22T04:37:51.625Z,38.63
2023-03-22T04:40:20.815Z,39.40
2023-03-22T04:42:48.081Z,40.50
2023-03-22T04:45:15.877Z,41.55
2023-03-22T04:47:43.182Z,44.50
2023-03-22T04:50:10.658Z,49.78
2023-03-22T04:52:39.062Z,49.50
2023-03-22T04:55:07.116Z,44.72
2023-03-22T04:57:35.804Z,47.47
2023-03-22T05:00:06.755Z,50.38
2023-03-22T05:02:41.157Z,50.22
2023-03-22T05:05:09.256Z,47.58
2023-03-22T05:07:36.656Z,49.35
2023-03-22T05:10:05.975Z,49.95
2023-03-22T05:12:33.728Z,45.25
2023-03-22T05:15:03.696Z,53.05
2023-03-22T05:17:32.006Z,40.38
2023-03-22T05:19:59.588Z,48.22
2023-03-22T05:22:26.784Z,47.30
2023-03-22T05:24:54.180Z,42.20
2023-03-22T05:27:31.008Z,36.05
2023-03-22T05:29:58.245Z,36.88
2023-03-22T05:32:25.689Z,43.08
2023-03-22T05:34:53.841Z,45.30
2023-03-22T05:37:21.341Z,44.08
2023-03-22T05:39:51.539Z,38.83
2023-03-22T05:42:19.089Z,47.95
2023-03-22T05:44:46.303Z,34.13
2023-03-22T05:47:13.689Z,36.22
2023-03-22T05:49:40.969Z,35.85
2023-03-22T05:52:08.263Z,37.58
2023-03-22T05:54:35.521Z,35.78
2023-03-22T05:57:02.958Z,34.45
2023-03-22T05:59:30.315Z,34.42
2023-03-22T06:01:58.657Z,34.05
2023-03-22T06:04:25.973Z,31.70
2023-03-22T06:06:54.185Z,40.15
2023-03-22T06:09:21.534Z,41.80
2023-03-22T06:11:51.354Z,39.45
2023-03-22T06:14:18.897Z,39.10
2023-03-22T06:16:46.457Z,37.63
2023-03-22T06:19:16.160Z,39.22
2023-03-22T06:21:44.039Z,44.25
2023-03-22T06:24:11.288Z,37.72
2023-03-22T06:26:38.606Z,37.58
2023-03-22T06:29:05.902Z,40.42
2023-03-22T06:31:33.133Z,32.75
2023-03-22T06:34:00.360Z,39.42
2023-03-22T06:36:27.597Z,41.80
2023-03-22T06:38:54.818Z,39.67
2023-03-22T06:41:22.093Z,50.90
2023-03-22T06:43:49.361Z,48.40
2023-03-22T06:46:17.496Z,38.15
2023-03-22T06:48:44.973Z,38.10
2023-03-22T06:51:12.530Z,41.65
2023-03-22T06:53:39.899Z,42.13
2023-03-22T06:56:07.649Z,46.30
2023-03-22T06:58:35.713Z,42.17
2023-03-22T07:01:03.188Z,42.63
2023-03-22T07:03:38.203Z,39.03
2023-03-22T07:06:07.349Z,37.35
2023-03-22T07:08:35.107Z,41.92
2023-03-22T07:11:06.921Z,47.45
2023-03-22T07:13:35.250Z,46.15
2023-03-22T07:16:02.723Z,40.65
2023-03-22T07:18:30.542Z,36.67
2023-03-22T07:20:58.604Z,41.38
2023-03-22T07:23:26.975Z,33.63
2023-03-22T07:25:56.022Z,39.80
2023-03-22T07:28:23.649Z,35.80
2023-03-22T07:31:06.643Z,33.60
2023-03-22T07:33:34.196Z,42.90
2023-03-22T07:36:02.750Z,37.60
2023-03-22T07:38:30.551Z,34.80
2023-03-22T07:40:58.838Z,34.72
2023-03-22T07:43:26.774Z,37.08
2023-03-22T07:45:54.064Z,37.28
2023-03-22T07:48:41.826Z,39.70
2023-03-22T07:51:09.160Z,34.22
2023-03-22T07:53:36.784Z,34.33
2023-03-22T07:56:07.455Z,38.10
2023-03-22T07:58:35.333Z,44.40
2023-03-22T08:01:09.041Z,34.28
2023-03-22T08:03:37.708Z,48.13
2023-03-22T08:06:08.267Z,31.00
2023-03-22T08:08:36.881Z,36.57
2023-03-22T08:11:06.704Z,35.65
2023-03-22T08:13:34.062Z,32.53
2023-03-22T08:16:05.447Z,37.78
2023-03-22T08:18:33.264Z,53.50
2023-03-22T08:21:00.794Z,39.97
2023-03-22T08:23:40.856Z,42.70
2023-03-22T08:26:09.814Z,36.40
2023-03-22T08:28:39.610Z,41.30
2023-03-22T08:31:15.528Z,40.38
2023-03-22T08:33:42.897Z,44.47
2023-03-22T08:36:12.695Z,38.25
2023-03-22T08:38:40.373Z,42.35
2023-03-22T08:41:07.623Z,33.70
2023-03-22T08:43:35.246Z,31.98
2023-03-22T08:46:03.433Z,21.98
2023-03-22T08:48:31.857Z,28.10
2023-03-22T08:50:59.140Z,23.55
2023-03-22T08:53:27.658Z,24.40
2023-03-22T08:55:58.180Z,23.88
2023-03-22T08:58:25.665Z,25.48
2023-03-22T09:00:53.008Z,24.55
2023-03-22T09:03:20.821Z,19.48
2023-03-22T09:05:48.106Z,22.48
2023-03-22T09:08:22.658Z,24.17
2023-03-22T09:10:51.992Z,21.10
2023-03-22T09:13:19.796Z,19.17
2023-03-22T09:15:55.200Z,23.63
2023-03-22T09:18:24.385Z,22.65
2023-03-22T09:20:52.023Z,18.60
2023-03-22T09:23:21.803Z,22.95
2023-03-22T09:25:49.111Z,23.05
2023-03-22T09:28:17.193Z,27.00
2023-03-22T09:30:46.288Z,26.00
2023-03-22T09:33:13.669Z,21.13
2023-03-22T09:35:42.837Z,20.88
2023-03-22T09:38:10.745Z,21.65
2023-03-22T09:40:43.606Z,27.80
2023-03-22T09:43:11.725Z,22.52
2023-03-22T09:45:43.286Z,26.35
2023-03-22T09:48:27.487Z,24.17
2023-03-22T09:50:58.917Z,21.10
2023-03-22T09:53:27.344Z,22.40
2023-03-22T09:56:10.666Z,24.98
2023-03-22T09:58:55.405Z,21.67
2023-03-22T10:01:38.855Z,26.17
2023-03-22T10:04:18.697Z,19.73
2023-03-22T10:06:49.556Z,24.13
2023-03-22T10:09:29.208Z,26.05
2023-03-22T10:12:05.028Z,22.52
2023-03-22T10:14:32.258Z,23.98
2023-03-22T10:17:03.803Z,21.00
2023-03-22T10:19:54.992Z,21.90
2023-03-22T10:22:30.160Z,24.63
2023-03-22T10:24:57.495Z,24.40
2023-03-22T10:27:24.980Z,23.65
2023-03-22T10:30:01.530Z,21.92
2023-03-22T10:32:47.996Z,25.48
2023-03-22T10:35:23.975Z,21.48
2023-03-22T10:37:51.286Z,26.65
2023-03-22T10:40:30.519Z,27.63
2023-03-22T10:43:12.172Z,25.50
2023-03-22T10:45:39.590Z,21.63
2023-03-22T10:48:26.923Z,20.20
2023-03-22T10:50:54.667Z,18.60
2023-03-22T10:53:38.457Z,18.83
2023-03-22T10:56:06.676Z,24.13
2023-03-22T10:58:34.587Z,21.77
2023-03-22T11:01:13.031Z,21.65
2023-03-22T11:03:50.886Z,21.95
2023-03-22T11:06:35.291Z,23.88
2023-03-22T11:09:11.847Z,24.85
2023-03-22T11:11:50.641Z,23.27
2023-03-22T11:14:27.978Z,27.90
2023-03-22T11:16:58.634Z,24.30
2023-03-22T11:19:31.536Z,21.67
2023-03-22T11:21:59.288Z,27.73
2023-03-22T11:24:27.837Z,19.80
2023-03-22T11:27:07.065Z,18.60
2023-03-22T11:29:44.248Z,21.15
2023-03-22T11:32:21.984Z,18.98
2023-03-22T11:34:58.756Z,17.45
2023-03-22T11:37:26.010Z,18.60
2023-03-22T11:39:57.654Z,17.10
2023-03-22T11:42:25.058Z,16.58
2023-03-22T11:44:52.488Z,17.45
2023-03-22T11:47:19.707Z,17.77
2023-03-22T11:49:50.926Z,17.02
2023-03-22T11:54:47.065Z,18.85
2023-03-22T11:57:17.102Z,18.08
2023-03-22T12:00:10.140Z,16.30
2023-03-22T12:02:43.915Z,20.02
2023-03-22T12:05:23.204Z,18.48
2023-03-22T12:07:53.486Z,22.23
2023-03-22T12:10:25.207Z,21.80
2023-03-22T12:13:00.740Z,18.13
2023-03-22T12:15:35.468Z,21.55
2023-03-22T12:18:10.147Z,18.98
2023-03-22T12:20:42.210Z,18.33
2023-03-22T12:23:21.142Z,18.80
2023-03-22T12:26:11.847Z,19.40
2023-03-22T12:28:50.360Z,17.83
2023-03-22T12:31:21.797Z,16.48
2023-03-22T12:33:53.760Z,18.48
2023-03-22T12:36:25.553Z,14.38
2023-03-22T12:38:54.879Z,19.55
2023-03-22T12:41:43.837Z,17.75
2023-03-22T12:44:28.211Z,19.45
2023-03-22T12:47:04.758Z,21.48
2023-03-22T12:49:35.331Z,18.08
2023-03-22T12:52:40.991Z,17.23
2023-03-22T12:55:25.412Z,17.30
2023-03-22T12:57:55.715Z,18.08
2023-03-22T13:00:34.733Z,17.15
2023-03-22T13:03:27.097Z,18.30
2023-03-22T13:06:07.464Z,17.92
2023-03-22T13:09:24.645Z,18.17
2023-03-22T13:12:17.397Z,17.65
2023-03-22T13:14:53.012Z,19.27
2023-03-22T13:17:23.116Z,16.75
2023-03-22T13:20:11.569Z,16.17
2023-03-22T13:22:41.795Z,16.17
2023-03-22T13:25:17.006Z,17.60
2023-03-22T13:28:04.116Z,17.13
2023-03-22T13:30:54.789Z,16.17
2023-03-22T13:33:30.152Z,17.08
2023-03-22T13:35:59.256Z,13.57
2023-03-22T13:38:37.890Z,18.05
2023-03-22T13:41:28.098Z,15.52
2023-03-22T13:43:56.426Z,14.30
2023-03-22T13:46:23.739Z,12.63
2023-03-22T13:49:12.113Z,16.77
2023-03-22T13:51:39.451Z,12.95
2023-03-22T13:54:13.415Z,14.13
2023-03-22T13:56:41.131Z,12.57
2023-03-22T13:59:22.449Z,12.75
2023-03-22T14:02:04.677Z,12.13
2023-03-22T14:07:38.908Z,15.27
2023-03-22T14:10:14.435Z,13.77
2023-03-22T14:12:45.667Z,12.90
2023-03-22T14:15:16.631Z,12.88
2023-03-22T14:18:07.244Z,11.52
2023-03-22T14:20:36.407Z,13.93
